Carrs, Kentucky
Current Conditions -  °F | °C
As of 11:15 AM on Sunday 25 Jan 2015 (Local Time) from KFGX Reporting Station
Clear Clear  
Wind Chill: 30°   Ceiling: Unl
Heat Index: 36°   Visibility: 10mi
Dew Point: 31°   Wind: 8mph
Humidity: 83%   Direction: 180°S
Pressure: 29.77"   Gusts: NA
Location:  38.4929°N, 83.3898°W
Report Text: KFGX 251615Z AUTO 18007KT 10SM CLR 02/00 A2977 RMK AO2 T00231003
Loading
Personal Weather Stations






























Interactive Weather Map New forecast layout! Learn more

10-Day Weather Forecast

Advertisements
Track Severe Weather on mobile